Time;durP1;ratioP1;P1;durP2;ratioP2;P2;SDS_P1;SDS_P2;PMS_P1;PMS_P2;Temp;Humidity;BMP_temperature;BMP_pressure;BME280_temperature;BME280_humidity;BME280_pressure;Samples;Min_cycle;Max_cycle;Signal;HPM_P1;HPM_P2
2023/08/03 00:01:55;;;;;;;2.33;1.50;;;19.30;82.70;20.80;98491.00;;;;6270859;22;20501;-53
2023/08/03 00:04:21;;;;;;;1.83;1.40;;;19.20;82.70;20.80;98489.00;;;;6270440;22;20170;-53
2023/08/03 00:06:46;;;;;;;1.90;1.60;;;19.10;82.90;20.70;98492.00;;;;6270138;22;20248;-53
2023/08/03 00:09:12;;;;;;;2.97;1.53;;;19.00;84.10;20.60;98498.00;;;;6270614;22;20154;-53
2023/08/03 00:11:38;;;;;;;2.30;1.63;;;19.10;83.70;20.60;98487.00;;;;6269465;22;20234;-53
2023/08/03 00:14:04;;;;;;;1.90;1.77;;;18.90;83.90;20.60;98480.00;;;;6270688;22;20143;-53
2023/08/03 00:16:29;;;;;;;3.00;1.60;;;19.00;83.10;20.60;98481.00;;;;6270025;22;20165;-53
2023/08/03 00:18:55;;;;;;;3.20;1.40;;;19.00;83.30;20.60;98477.00;;;;6270598;22;20214;-53
2023/08/03 00:21:21;;;;;;;1.60;1.50;;;19.10;83.10;20.60;98477.00;;;;6270530;22;20505;-53
2023/08/03 00:23:46;;;;;;;1.57;1.40;;;19.00;83.30;20.60;98484.00;;;;6271360;22;20145;-53
2023/08/03 00:26:12;;;;;;;2.60;1.50;;;19.10;83.40;20.50;98475.00;;;;6272326;22;20177;-53
2023/08/03 00:28:38;;;;;;;2.20;1.60;;;18.90;83.30;20.50;98481.00;;;;6272665;22;20144;-53
2023/08/03 00:31:05;;;;;;;1.90;1.60;;;18.90;83.90;20.40;98489.00;;;;6272401;22;20284;-53
2023/08/03 00:33:30;;;;;;;2.40;1.70;;;18.90;83.80;20.40;98485.00;;;;6272362;22;20173;-54
2023/08/03 00:35:56;;;;;;;1.90;1.43;;;18.90;83.30;20.40;98480.00;;;;6272755;22;20150;-54
2023/08/03 00:38:22;;;;;;;1.60;1.50;;;18.90;83.80;20.40;98482.00;;;;6272577;22;20608;-51
2023/08/03 00:40:50;;;;;;;2.37;1.20;;;18.90;83.90;20.40;98492.00;;;;6272421;22;20511;-54
2023/08/03 00:43:16;;;;;;;1.83;1.43;;;18.90;84.20;20.40;98494.00;;;;6271034;22;20182;-51
2023/08/03 00:45:42;;;;;;;1.77;1.10;;;18.90;84.70;20.30;98495.00;;;;6272434;22;20178;-54
2023/08/03 00:48:08;;;;;;;2.07;1.47;;;18.80;84.20;20.30;98485.00;;;;6270673;22;20484;-53
2023/08/03 00:50:33;;;;;;;1.43;1.20;;;18.80;84.80;20.30;98493.00;;;;6270936;22;20244;-53
2023/08/03 00:52:59;;;;;;;1.40;1.30;;;18.80;84.70;20.20;98509.00;;;;6272260;22;20290;-53
2023/08/03 00:55:25;;;;;;;2.10;1.30;;;18.80;84.80;20.20;98511.00;;;;6272314;22;20145;-54
2023/08/03 00:57:50;;;;;;;2.00;1.43;;;18.70;84.70;20.20;98511.00;;;;6272090;22;20155;-53
2023/08/03 01:00:16;;;;;;;2.13;1.40;;;18.70;83.90;20.20;98508.00;;;;6244958;22;20172;-53
2023/08/03 01:02:42;;;;;;;1.90;1.20;;;18.70;84.30;20.10;98512.00;;;;6272357;22;20602;-53
2023/08/03 01:05:08;;;;;;;1.60;1.47;;;18.60;84.50;20.10;98520.00;;;;6272856;22;20637;-53
2023/08/03 01:07:36;;;;;;;2.37;1.30;;;18.60;84.10;20.10;98528.00;;;;6272856;22;20153;-55
2023/08/03 01:10:02;;;;;;;1.80;1.47;;;18.70;84.30;20.00;98530.00;;;;6270483;22;20173;-53
2023/08/03 01:12:28;;;;;;;1.60;1.50;;;18.60;84.20;20.00;98520.00;;;;6272022;22;20535;-53
2023/08/03 01:14:54;;;;;;;2.07;1.20;;;18.70;84.60;20.00;98535.00;;;;6244816;22;20156;-53
2023/08/03 01:17:20;;;;;;;3.07;1.47;;;18.70;84.10;20.00;98535.00;;;;6269895;22;20161;-53
2023/08/03 01:19:46;;;;;;;2.93;1.60;;;18.70;84.50;20.00;98569.00;;;;6271586;22;20188;-53
2023/08/03 01:22:12;;;;;;;3.10;1.70;;;18.70;83.70;19.90;98539.00;;;;6244824;22;20482;-53
2023/08/03 01:24:38;;;;;;;2.17;1.40;;;18.70;83.70;19.90;98550.00;;;;6271672;22;20180;-53
2023/08/03 01:27:05;;;;;;;2.07;1.50;;;18.70;83.70;19.90;98558.00;;;;6270007;22;20173;-53
2023/08/03 01:29:30;;;;;;;1.80;1.70;;;18.70;83.70;19.90;98555.00;;;;6219610;22;20488;-53
2023/08/03 01:31:58;;;;;;;3.03;1.60;;;18.70;83.50;19.90;98586.00;;;;6271711;22;20243;-53
2023/08/03 01:34:24;;;;;;;2.03;1.50;;;18.60;83.50;19.90;98574.00;;;;6271783;22;20210;-53
2023/08/03 01:36:51;;;;;;;1.83;1.60;;;18.60;83.80;19.90;98589.00;;;;6244543;22;20659;-52
2023/08/03 01:39:16;;;;;;;2.20;1.50;;;18.60;84.60;19.90;98569.00;;;;6271016;22;20180;-52
2023/08/03 01:41:42;;;;;;;3.30;1.60;;;18.60;85.60;19.90;98587.00;;;;6273671;22;20576;-53
2023/08/03 01:44:28;;;;;;;2.40;1.70;;;18.50;86.00;19.90;98602.00;;;;6273119;22;20211;-53
2023/08/03 01:46:55;;;;;;;1.87;1.67;;;18.50;86.70;19.90;98598.00;;;;6271669;22;20605;-53
2023/08/03 01:49:22;;;;;;;3.00;1.70;;;18.50;87.00;19.90;98588.00;;;;6270405;22;20159;-53
2023/08/03 01:51:48;;;;;;;4.03;1.80;;;18.50;86.80;19.90;98604.00;;;;6244488;22;20514;-53
2023/08/03 01:54:14;;;;;;;2.80;1.40;;;18.60;86.10;19.90;98591.00;;;;6270490;22;20152;-53
2023/08/03 01:56:40;;;;;;;2.17;1.53;;;18.60;86.00;19.90;98588.00;;;;6273844;22;20169;-53
2023/08/03 01:59:06;;;;;;;2.87;1.60;;;18.50;85.70;19.90;98600.00;;;;6271409;22;20149;-52
2023/08/03 02:01:32;;;;;;;2.47;1.67;;;18.60;85.50;19.90;98596.00;;;;6271143;22;20181;-53
2023/08/03 02:03:57;;;;;;;2.10;1.53;;;18.60;85.60;19.90;98599.00;;;;6271350;22;20490;-53
2023/08/03 02:06:23;;;;;;;2.20;1.60;;;18.60;85.50;19.90;98596.00;;;;6271211;22;20141;-53
2023/08/03 02:08:49;;;;;;;2.93;1.50;;;18.50;85.20;19.80;98606.00;;;;6271484;22;20145;-52
2023/08/03 02:11:14;;;;;;;3.00;1.50;;;18.40;85.20;19.80;98620.00;;;;6271556;22;20177;-53
2023/08/03 02:13:40;;;;;;;2.80;1.53;;;18.50;85.90;19.80;98600.00;;;;6271666;22;20145;-52
2023/08/03 02:16:10;;;;;;;2.40;1.30;;;18.40;86.10;19.80;98608.00;;;;6270974;22;20200;-52
2023/08/03 02:18:39;;;;;;;2.07;1.60;;;18.50;86.20;19.70;98612.00;;;;6271477;22;20589;-53
2023/08/03 02:21:05;;;;;;;4.50;1.77;;;18.40;86.00;19.70;98603.00;;;;6269756;22;20171;-53
2023/08/03 02:23:31;;;;;;;2.40;1.50;;;18.50;86.20;19.70;98612.00;;;;6271459;22;20149;-53
2023/08/03 02:25:57;;;;;;;3.57;1.77;;;18.40;86.00;19.80;98617.00;;;;6269553;22;20263;-53
2023/08/03 02:28:23;;;;;;;3.77;1.70;;;18.50;85.70;19.80;98609.00;;;;6269589;22;20639;-53
2023/08/03 02:30:49;;;;;;;2.63;1.60;;;18.60;85.30;19.80;98611.00;;;;6271024;22;20164;-53
2023/08/03 02:33:14;;;;;;;2.80;1.90;;;18.60;84.90;19.80;98614.00;;;;6271157;22;20207;-52
2023/08/03 02:35:40;;;;;;;3.13;1.70;;;18.60;84.90;19.80;98615.00;;;;6271167;22;20227;-53
2023/08/03 02:38:06;;;;;;;3.20;1.67;;;18.50;84.50;19.80;98636.00;;;;6271058;22;20655;-53
2023/08/03 02:40:32;;;;;;;1.57;1.37;;;18.50;84.50;19.80;98631.00;;;;6269600;22;20633;-53
2023/08/03 02:42:58;;;;;;;3.27;1.40;;;18.50;84.90;19.80;98619.00;;;;6271068;22;20270;-53
2023/08/03 02:45:24;;;;;;;1.90;1.50;;;18.50;84.70;19.80;98630.00;;;;6270692;22;20234;-53
2023/08/03 02:47:49;;;;;;;1.67;1.43;;;18.50;84.50;19.80;98638.00;;;;6270885;22;20149;-53
2023/08/03 02:50:15;;;;;;;1.87;1.50;;;18.50;84.70;19.80;98652.00;;;;6269646;22;20161;-53
2023/08/03 02:52:41;;;;;;;2.40;1.50;;;18.50;84.70;19.70;98640.00;;;;6270948;22;20612;-53
2023/08/03 02:55:07;;;;;;;1.70;1.60;;;18.40;85.00;19.80;98630.00;;;;6270870;22;20149;-53
2023/08/03 02:57:33;;;;;;;1.60;1.50;;;18.50;84.50;19.70;98641.00;;;;6270775;22;20206;-53
2023/08/03 02:59:58;;;;;;;2.40;1.57;;;18.40;84.90;19.70;98660.00;;;;6270556;22;20215;-53
2023/08/03 03:02:24;;;;;;;1.83;1.50;;;18.50;84.80;19.70;98640.00;;;;6272186;22;20194;-53
2023/08/03 03:04:50;;;;;;;1.63;1.43;;;18.40;85.10;19.70;98651.00;;;;6272099;22;20175;-53
2023/08/03 03:07:16;;;;;;;2.13;1.57;;;18.50;85.00;19.70;98638.00;;;;6272240;22;20145;-53
2023/08/03 03:09:41;;;;;;;2.40;1.47;;;18.50;84.70;19.80;98659.00;;;;6270708;22;20188;-53
2023/08/03 03:12:08;;;;;;;2.37;1.40;;;18.60;84.60;19.80;98659.00;;;;6272150;22;20145;-53
2023/08/03 03:14:36;;;;;;;2.53;1.50;;;18.60;84.60;19.80;98659.00;;;;6272112;22;20161;-54
2023/08/03 03:17:03;;;;;;;3.00;1.50;;;18.60;84.30;19.80;98662.00;;;;6271863;22;20160;-53
2023/08/03 03:19:28;;;;;;;1.87;1.33;;;18.50;84.40;19.80;98658.00;;;;6272168;22;20732;-53
2023/08/03 03:21:54;;;;;;;1.60;1.50;;;18.40;84.70;19.70;98663.00;;;;6272391;22;20152;-52
2023/08/03 03:24:20;;;;;;;2.47;1.40;;;18.40;85.00;19.70;98654.00;;;;6272195;22;20169;-51
2023/08/03 03:26:46;;;;;;;1.90;1.50;;;18.40;85.00;19.70;98652.00;;;;6271708;22;20195;-53
2023/08/03 03:29:11;;;;;;;2.77;1.60;;;18.40;85.00;19.80;98657.00;;;;6270529;22;20141;-52
2023/08/03 03:31:37;;;;;;;1.60;1.50;;;18.60;84.60;19.80;98647.00;;;;6271349;22;20253;-52
2023/08/03 03:34:03;;;;;;;2.07;1.20;;;18.80;83.80;19.90;98624.00;;;;6271919;22;20141;-52
2023/08/03 03:36:28;;;;;;;2.10;1.37;;;19.00;82.90;20.00;98655.00;;;;6270068;22;20146;-53
2023/08/03 03:38:54;;;;;;;2.37;1.23;;;19.10;82.40;20.00;98647.00;;;;6272142;22;20148;-53
2023/08/03 03:41:20;;;;;;;3.23;1.40;;;19.10;81.90;20.10;98659.00;;;;6277073;22;20517;-54
2023/08/03 03:43:46;;;;;;;1.77;1.40;;;19.10;82.10;20.10;98653.00;;;;6272701;22;20175;-53
2023/08/03 03:46:11;;;;;;;2.17;1.50;;;19.10;82.00;20.10;98663.00;;;;6271655;22;20509;-54
2023/08/03 03:48:37;;;;;;;1.97;1.20;;;19.10;82.00;20.20;98669.00;;;;6271972;22;20145;-53
2023/08/03 03:51:03;;;;;;;3.57;1.50;;;19.20;81.80;20.20;98683.00;;;;6270495;22;20606;-54
2023/08/03 03:53:28;;;;;;;1.53;1.37;;;19.20;81.40;20.20;98694.00;;;;6272378;22;20151;-53
2023/08/03 03:55:54;;;;;;;1.30;1.20;;;19.10;81.60;20.20;98672.00;;;;6276309;22;20644;-53
2023/08/03 03:58:20;;;;;;;1.17;1.10;;;19.10;81.80;20.20;98680.00;;;;6270932;22;20152;-53
2023/08/03 04:00:46;;;;;;;1.77;1.30;;;19.10;81.90;20.20;98675.00;;;;6273096;22;20177;-53
2023/08/03 04:03:11;;;;;;;1.63;1.20;;;19.10;81.80;20.20;98672.00;;;;6246564;22;20150;-53
2023/08/03 04:05:37;;;;;;;1.17;1.17;;;19.20;81.90;20.30;98682.00;;;;6273142;22;20596;-54
2023/08/03 04:08:03;;;;;;;2.03;1.30;;;19.20;81.60;20.30;98691.00;;;;6272546;22;20195;-53
2023/08/03 04:10:29;;;;;;;1.30;1.10;;;19.30;81.30;20.30;98693.00;;;;6266740;22;20165;-52
2023/08/03 04:12:55;;;;;;;1.30;1.20;;;19.30;81.10;20.30;98694.00;;;;6271964;22;20152;-53
2023/08/03 04:15:21;;;;;;;1.10;1.10;;;19.40;81.40;20.30;98692.00;;;;6272561;22;20158;-52
2023/08/03 04:17:48;;;;;;;1.20;1.13;;;19.20;81.80;20.30;98703.00;;;;6272442;22;20183;-52
2023/08/03 04:20:15;;;;;;;1.80;1.10;;;19.30;82.10;20.30;98706.00;;;;6272987;22;20226;-53
2023/08/03 04:22:41;;;;;;;2.30;1.00;;;19.20;82.20;20.30;98634.00;;;;6271572;22;20145;-54
2023/08/03 04:25:07;;;;;;;1.97;1.10;;;19.30;81.90;20.30;98708.00;;;;6272100;22;20183;-54
2023/08/03 04:27:33;;;;;;;1.07;0.93;;;19.30;82.10;20.30;98720.00;;;;6272601;22;20632;-54
2023/08/03 04:29:59;;;;;;;1.37;1.17;;;19.30;81.90;20.40;98727.00;;;;6273058;22;20163;-53
2023/08/03 04:32:24;;;;;;;1.30;1.20;;;19.40;81.90;20.40;98717.00;;;;6272121;22;20176;-54
2023/08/03 04:34:50;;;;;;;1.10;1.00;;;19.40;81.30;20.40;98705.00;;;;6272898;22;20145;-53
2023/08/03 04:37:16;;;;;;;1.47;1.00;;;19.40;81.50;20.40;98710.00;;;;6270910;22;20685;-54
2023/08/03 04:39:42;;;;;;;1.63;1.10;;;19.50;80.90;20.40;98729.00;;;;6269891;22;20216;-53
2023/08/03 04:42:07;;;;;;;2.30;1.17;;;19.50;81.00;20.50;98732.00;;;;6272304;22;20181;-53
2023/08/03 04:44:33;;;;;;;1.03;1.03;;;19.50;81.20;20.50;98743.00;;;;6272753;22;20208;-53
2023/08/03 04:46:59;;;;;;;1.10;1.10;;;19.40;81.20;20.40;98728.00;;;;6271050;22;20141;-54
2023/08/03 04:49:27;;;;;;;0.70;0.70;;;19.30;81.80;20.40;98730.00;;;;6271400;22;20493;-54
2023/08/03 04:51:53;;;;;;;1.17;1.07;;;19.40;81.30;20.40;98737.00;;;;6271781;22;20149;-53
2023/08/03 04:54:19;;;;;;;0.87;0.87;;;19.40;81.20;20.40;98726.00;;;;6272198;22;20234;-53
2023/08/03 04:56:45;;;;;;;0.90;0.90;;;19.40;81.50;20.40;98739.00;;;;6271477;22;20168;-53
2023/08/03 04:59:11;;;;;;;1.17;0.93;;;19.30;81.50;20.40;98740.00;;;;6272977;22;20144;-53
2023/08/03 05:01:36;;;;;;;0.90;0.77;;;19.40;81.60;20.40;98732.00;;;;6272050;22;20161;-53
2023/08/03 05:04:02;;;;;;;1.17;1.03;;;19.30;81.40;20.40;98741.00;;;;6272433;22;20172;-53
2023/08/03 05:06:28;;;;;;;1.87;1.00;;;19.30;81.70;20.40;98752.00;;;;6270428;22;20534;-53
2023/08/03 05:08:54;;;;;;;1.20;0.97;;;19.30;81.60;20.40;98741.00;;;;6272638;22;20145;-53
2023/08/03 05:11:20;;;;;;;0.80;0.80;;;19.30;81.40;20.40;98735.00;;;;6270264;22;20173;-53
2023/08/03 05:13:45;;;;;;;0.80;0.80;;;19.40;82.10;20.40;98744.00;;;;6272945;22;20231;-53
2023/08/03 05:16:11;;;;;;;0.93;0.93;;;19.30;81.00;20.40;98740.00;;;;6271404;22;20630;-53
2023/08/03 05:18:37;;;;;;;0.50;0.50;;;19.30;81.30;20.40;98750.00;;;;6272587;22;20140;-53
2023/08/03 05:21:02;;;;;;;0.73;0.73;;;19.20;81.70;20.40;98762.00;;;;6272043;22;20165;-52
2023/08/03 05:23:28;;;;;;;0.73;0.70;;;19.30;81.30;20.30;98769.00;;;;6272536;22;20145;-53
2023/08/03 05:25:57;;;;;;;0.80;0.80;;;19.30;80.90;20.40;98752.00;;;;6271450;22;20180;-53
2023/08/03 05:28:23;;;;;;;1.10;1.00;;;19.30;80.90;20.40;98763.00;;;;6272513;22;20142;-53
2023/08/03 05:30:49;;;;;;;1.03;0.90;;;19.30;80.70;20.40;98760.00;;;;6271944;22;20638;-53
2023/08/03 05:33:15;;;;;;;1.97;1.17;;;19.30;80.90;20.40;98743.00;;;;6271223;22;20142;-53
2023/08/03 05:35:41;;;;;;;0.90;0.90;;;19.30;80.60;20.40;98751.00;;;;6270608;22;20149;-53
2023/08/03 05:38:07;;;;;;;0.77;0.67;;;19.30;80.60;20.40;98756.00;;;;6273831;22;20203;-52
2023/08/03 05:40:33;;;;;;;1.10;1.10;;;19.30;80.60;20.40;98755.00;;;;6275140;22;20169;-53
2023/08/03 05:42:59;;;;;;;1.10;0.97;;;19.20;80.70;20.30;98764.00;;;;6272707;22;20144;-53
2023/08/03 05:45:44;;;;;;;0.50;0.50;;;19.20;80.70;20.30;98756.00;;;;6271021;22;20168;-52
2023/08/03 05:48:17;;;;;;;1.47;0.77;;;19.20;81.10;20.30;98768.00;;;;6272419;22;20141;-53
2023/08/03 05:50:48;;;;;;;0.90;0.80;;;19.30;80.90;20.30;98767.00;;;;6271819;22;20176;-53
2023/08/03 05:53:13;;;;;;;0.97;0.97;;;19.20;80.70;20.30;98766.00;;;;6275123;22;20148;-52
2023/08/03 05:55:39;;;;;;;0.70;0.70;;;19.30;80.50;20.30;98772.00;;;;6277784;22;20152;-53
2023/08/03 05:58:06;;;;;;;1.23;1.00;;;19.30;80.20;20.30;98786.00;;;;6271881;22;20236;-53
2023/08/03 06:00:31;;;;;;;1.27;0.97;;;19.30;80.20;20.30;98777.00;;;;6270294;22;20199;-53
2023/08/03 06:02:58;;;;;;;1.27;0.90;;;19.30;80.70;20.40;98803.00;;;;6271717;22;20147;-52
2023/08/03 06:05:37;;;;;;;1.50;0.50;;;19.30;81.70;20.30;98782.00;;;;6270282;22;20251;-53
2023/08/03 06:08:16;;;;;;;0.90;0.90;;;19.30;82.50;20.30;98785.00;;;;6245116;22;20138;-53
2023/08/03 06:10:46;;;;;;;0.63;0.63;;;19.20;82.60;20.30;98797.00;;;;6270567;22;20167;-52
2023/08/03 06:13:14;;;;;;;1.03;0.93;;;19.20;82.50;20.20;98783.00;;;;6271682;22;20144;-52
2023/08/03 06:15:41;;;;;;;1.90;1.00;;;19.00;83.10;20.20;98811.00;;;;6265408;22;20212;-53
2023/08/03 06:18:16;;;;;;;1.33;0.67;;;19.10;83.20;20.20;98797.00;;;;6268670;22;20203;-53
2023/08/03 06:20:50;;;;;;;1.20;1.10;;;19.10;83.20;20.20;98798.00;;;;6270635;22;20614;-53
2023/08/03 06:23:18;;;;;;;1.70;0.90;;;19.20;83.40;20.20;98795.00;;;;6272011;22;20760;-53
2023/08/03 06:25:50;;;;;;;1.00;0.90;;;19.20;83.10;20.20;98815.00;;;;6269691;22;20260;-52
2023/08/03 06:28:17;;;;;;;1.13;1.03;;;19.00;83.70;20.20;98819.00;;;;6271444;22;20149;-54
2023/08/03 06:30:44;;;;;;;1.10;1.00;;;19.20;83.90;20.20;98820.00;;;;6269082;22;20176;-53
2023/08/03 06:33:11;;;;;;;1.13;1.07;;;19.20;82.50;20.30;98820.00;;;;6270902;22;20219;-52
2023/08/03 06:35:45;;;;;;;1.57;1.10;;;19.30;82.20;20.30;98840.00;;;;6269529;22;20149;-52
2023/08/03 06:38:13;;;;;;;0.80;0.80;;;19.40;81.70;20.40;98821.00;;;;6271915;22;20217;-52
2023/08/03 06:40:40;;;;;;;1.10;0.90;;;19.60;81.50;20.40;98826.00;;;;6270561;22;20270;-52
2023/08/03 06:43:06;;;;;;;1.03;1.00;;;19.60;81.20;20.50;98825.00;;;;6270812;22;20203;-52
2023/08/03 06:45:32;;;;;;;1.63;1.40;;;19.60;80.90;20.50;98830.00;;;;6269588;22;20176;-53
2023/08/03 06:47:59;;;;;;;2.20;1.30;;;19.70;80.90;20.50;98831.00;;;;6270179;22;20145;-52
2023/08/03 06:50:26;;;;;;;2.63;1.20;;;19.70;80.90;20.60;98835.00;;;;6271850;22;20254;-51
2023/08/03 06:52:52;;;;;;;0.90;0.90;;;19.70;80.70;20.60;98842.00;;;;6245319;22;20220;-52
2023/08/03 06:55:18;;;;;;;2.30;1.10;;;19.70;80.50;20.60;98849.00;;;;6268565;22;20642;-52
2023/08/03 06:57:45;;;;;;;1.47;1.03;;;19.70;80.50;20.60;98851.00;;;;6271107;22;20181;-52
2023/08/03 07:00:12;;;;;;;1.63;1.00;;;19.80;80.50;20.70;98839.00;;;;6269727;22;20684;-51
2023/08/03 07:02:38;;;;;;;2.97;1.10;;;19.80;80.40;20.70;98856.00;;;;6269998;22;20152;-51
2023/08/03 07:05:04;;;;;;;1.43;0.80;;;19.90;80.30;20.70;98861.00;;;;6270599;22;20169;-51
2023/08/03 07:07:30;;;;;;;2.23;1.37;;;19.80;80.00;20.80;98858.00;;;;6270623;22;20141;-52
2023/08/03 07:09:56;;;;;;;1.63;1.23;;;19.90;80.00;20.80;98865.00;;;;6269650;22;20175;-51
2023/08/03 07:12:22;;;;;;;4.57;1.33;;;19.90;79.90;20.80;98873.00;;;;6271036;22;20170;-52
2023/08/03 07:14:48;;;;;;;1.53;1.10;;;19.90;79.90;20.80;98883.00;;;;6270945;22;20145;-52
2023/08/03 07:17:13;;;;;;;1.23;1.10;;;19.90;79.80;20.80;98895.00;;;;6270846;22;20160;-52
2023/08/03 07:19:40;;;;;;;0.90;0.77;;;19.90;80.10;20.80;98889.00;;;;6271346;22;20628;-52
2023/08/03 07:22:06;;;;;;;1.10;1.03;;;19.90;80.20;20.80;98892.00;;;;6269961;22;20149;-52
2023/08/03 07:24:32;;;;;;;0.83;0.83;;;20.00;80.50;20.90;98901.00;;;;6271957;22;20175;-52
2023/08/03 07:27:00;;;;;;;1.90;1.20;;;19.90;80.40;20.90;98897.00;;;;6269999;22;20152;-52
2023/08/03 07:29:29;;;;;;;1.00;0.90;;;20.00;80.60;20.90;98904.00;;;;6271068;22;20661;-52
2023/08/03 07:31:55;;;;;;;1.17;1.07;;;20.00;80.70;20.90;98916.00;;;;6271191;22;20148;-52
2023/08/03 07:34:21;;;;;;;0.90;0.90;;;20.00;80.80;20.90;98908.00;;;;6271369;22;20148;-52
2023/08/03 07:36:53;;;;;;;2.60;1.40;;;20.00;81.10;20.90;98913.00;;;;6270276;22;20621;-52
2023/08/03 07:39:20;;;;;;;1.20;1.10;;;20.00;81.10;20.90;98919.00;;;;6272119;22;20137;-52
2023/08/03 07:41:45;;;;;;;0.97;0.90;;;20.10;81.40;20.90;98925.00;;;;6272092;22;20585;-52
2023/08/03 07:44:11;;;;;;;1.90;1.03;;;20.00;81.30;20.90;98924.00;;;;6269196;22;20238;-52
2023/08/03 07:46:37;;;;;;;1.33;1.20;;;20.10;81.60;20.90;98926.00;;;;6270453;22;20144;-52
2023/08/03 07:49:02;;;;;;;0.87;0.87;;;20.10;81.80;21.00;98928.00;;;;6271422;22;20149;-52
2023/08/03 07:51:28;;;;;;;1.00;1.00;;;20.10;81.70;21.00;98944.00;;;;6271001;22;20175;-52
2023/08/03 07:53:55;;;;;;;1.37;1.17;;;20.10;82.10;21.00;98947.00;;;;6274451;22;20480;-52
2023/08/03 07:56:21;;;;;;;1.20;1.10;;;20.10;82.20;21.00;98951.00;;;;6270370;22;20152;-52
2023/08/03 07:58:48;;;;;;;1.30;1.20;;;20.10;82.10;21.00;98956.00;;;;6271474;22;20149;-52
2023/08/03 08:01:14;;;;;;;1.30;1.20;;;20.10;82.00;21.00;98961.00;;;;6269831;22;20165;-51
2023/08/03 08:03:40;;;;;;;2.00;1.17;;;20.10;81.80;21.00;98962.00;;;;6271185;22;20179;-52
2023/08/03 08:06:14;;;;;;;1.17;1.07;;;20.10;81.70;21.00;98964.00;;;;6270295;22;20211;-52
2023/08/03 08:08:40;;;;;;;1.00;0.80;;;20.10;81.60;21.00;98967.00;;;;6271192;22;20566;-52
2023/08/03 08:11:05;;;;;;;1.00;1.00;;;20.10;81.40;21.00;98966.00;;;;6271720;22;20218;-52
2023/08/03 08:13:31;;;;;;;1.57;1.23;;;20.10;81.40;21.00;98969.00;;;;6271241;22;20144;-52
2023/08/03 08:16:08;;;;;;;1.13;0.90;;;20.10;81.30;21.00;98979.00;;;;6270591;22;20628;-52
2023/08/03 08:18:34;;;;;;;1.23;1.10;;;20.10;81.20;21.00;98969.00;;;;6271227;22;20132;-52
2023/08/03 08:21:04;;;;;;;0.80;0.80;;;20.10;81.10;21.00;98977.00;;;;6271065;22;20171;-52
2023/08/03 08:23:30;;;;;;;0.90;0.90;;;20.10;81.10;21.00;98958.00;;;;6271485;22;20481;-51
2023/08/03 08:25:56;;;;;;;1.10;1.10;;;20.10;81.00;21.00;98982.00;;;;6269497;22;20225;-51
2023/08/03 08:28:22;;;;;;;2.03;1.20;;;20.10;81.00;21.00;98989.00;;;;6271392;22;20453;-52
2023/08/03 08:30:48;;;;;;;3.20;1.07;;;20.10;81.30;21.00;98985.00;;;;6270770;22;20172;-53
2023/08/03 08:33:14;;;;;;;1.23;1.13;;;20.10;81.10;21.00;98980.00;;;;6271165;22;20146;-52
2023/08/03 08:35:40;;;;;;;3.10;1.27;;;20.10;80.80;21.00;98991.00;;;;6271019;22;20231;-52
2023/08/03 08:38:09;;;;;;;1.20;1.13;;;20.10;80.80;21.00;98998.00;;;;6269319;22;20181;-51
2023/08/03 08:40:38;;;;;;;1.30;1.10;;;20.10;80.90;21.00;99005.00;;;;6271221;22;20266;-53
2023/08/03 08:43:04;;;;;;;1.77;1.10;;;20.10;82.20;21.00;99018.00;;;;6271257;22;20148;-52
2023/08/03 08:45:30;;;;;;;1.50;1.13;;;20.10;81.30;21.00;99025.00;;;;6270109;22;20226;-52
2023/08/03 08:47:57;;;;;;;1.67;1.00;;;20.10;81.40;21.00;99023.00;;;;6273295;22;20224;-52
2023/08/03 08:50:22;;;;;;;1.00;1.00;;;20.20;81.40;21.00;99029.00;;;;6271819;22;20165;-52
2023/08/03 08:52:48;;;;;;;0.80;0.80;;;20.10;81.30;21.00;99028.00;;;;6272641;22;20155;-52
2023/08/03 08:55:16;;;;;;;1.90;1.03;;;20.10;81.10;21.00;99033.00;;;;6220994;22;20249;-52
2023/08/03 08:57:42;;;;;;;1.87;1.10;;;20.10;81.00;21.00;99035.00;;;;6272429;22;20250;-52
2023/08/03 09:00:08;;;;;;;1.23;1.13;;;20.10;80.90;21.00;99042.00;;;;6273311;22;20191;-52
2023/08/03 09:02:34;;;;;;;0.90;0.90;;;20.10;80.90;21.00;99052.00;;;;6273371;22;20603;-52
2023/08/03 09:05:18;;;;;;;1.83;1.00;;;20.10;80.80;21.00;99050.00;;;;6271988;22;20169;-52
2023/08/03 09:07:44;;;;;;;1.30;1.20;;;20.20;80.80;21.00;99049.00;;;;6270409;22;20244;-52
2023/08/03 09:10:10;;;;;;;1.40;1.30;;;20.20;80.70;21.00;99053.00;;;;6273105;22;20776;-51
2023/08/03 09:12:38;;;;;;;1.27;1.17;;;20.20;80.60;21.00;99067.00;;;;6271710;22;20232;-52
2023/08/03 09:15:05;;;;;;;1.17;1.07;;;20.20;80.50;21.00;99070.00;;;;6272894;22;20202;-52
2023/08/03 09:17:31;;;;;;;0.97;0.97;;;20.20;80.40;21.00;99069.00;;;;6271706;22;20252;-52
2023/08/03 09:19:57;;;;;;;1.00;1.00;;;20.20;80.30;21.00;99075.00;;;;6271538;22;20173;-51
2023/08/03 09:22:24;;;;;;;1.07;0.93;;;20.20;80.30;21.00;99081.00;;;;6273121;22;20184;-52
2023/08/03 09:25:01;;;;;;;2.13;1.10;;;20.20;80.20;21.00;99076.00;;;;6269554;22;20184;-52
2023/08/03 09:27:27;;;;;;;2.50;0.90;;;20.20;80.20;21.00;99084.00;;;;6271003;22;20138;-52
2023/08/03 09:29:59;;;;;;;3.50;1.30;;;20.20;80.20;21.00;99086.00;;;;6270676;22;20255;-52
2023/08/03 09:32:34;;;;;;;1.93;1.10;;;20.30;80.30;21.00;99084.00;;;;6271080;22;20133;-51
2023/08/03 09:35:01;;;;;;;1.20;1.10;;;20.30;80.30;21.00;99084.00;;;;6272954;22;20443;-51
2023/08/03 09:37:34;;;;;;;2.10;1.20;;;20.30;80.30;21.10;99081.00;;;;6264502;22;20188;-52
2023/08/03 09:40:03;;;;;;;1.43;1.20;;;20.30;81.00;21.10;99096.00;;;;6264650;22;20611;-52
2023/08/03 09:42:31;;;;;;;1.10;1.10;;;20.20;80.20;21.10;99095.00;;;;6272586;22;20153;-52
2023/08/03 09:45:03;;;;;;;1.27;1.03;;;20.20;80.10;21.10;99087.00;;;;6269985;22;20256;-52
2023/08/03 09:47:33;;;;;;;1.10;1.00;;;20.30;80.30;21.10;99033.00;;;;6246514;22;20143;-52
2023/08/03 09:49:58;;;;;;;1.00;1.00;;;20.30;80.20;21.10;99093.00;;;;6272359;22;20195;-52
2023/08/03 09:52:29;;;;;;;0.90;0.90;;;20.30;80.20;21.10;99095.00;;;;6275424;22;20148;-52
2023/08/03 09:55:13;;;;;;;1.60;1.03;;;20.30;80.20;21.10;99102.00;;;;6273367;22;20460;-52
2023/08/03 09:57:43;;;;;;;1.30;1.20;;;20.30;80.30;21.10;99101.00;;;;6271988;22;20195;-52
2023/08/03 10:00:11;;;;;;;1.00;1.00;;;20.30;80.20;21.10;99110.00;;;;6270759;22;20172;-52
2023/08/03 10:02:49;;;;;;;1.20;1.10;;;20.30;80.20;21.10;99100.00;;;;6272217;22;20145;-52
2023/08/03 10:05:18;;;;;;;1.70;1.13;;;20.30;80.30;21.10;99110.00;;;;6244385;22;20706;-52
2023/08/03 10:07:53;;;;;;;1.90;1.03;;;20.30;80.20;21.10;99094.00;;;;6270849;22;20148;-52
2023/08/03 10:10:20;;;;;;;0.97;0.97;;;20.30;80.30;21.10;99108.00;;;;6270688;22;20174;-52
2023/08/03 10:12:47;;;;;;;1.53;1.10;;;20.30;80.30;21.10;99106.00;;;;6219538;22;20199;-52
2023/08/03 10:15:13;;;;;;;1.70;1.30;;;20.30;80.20;21.10;99110.00;;;;6244245;22;20179;-52
2023/08/03 10:17:38;;;;;;;3.80;1.40;;;20.30;80.20;21.10;99115.00;;;;6270165;22;20632;-52
2023/08/03 10:20:05;;;;;;;3.67;1.87;;;20.30;80.30;21.10;99130.00;;;;6270718;22;20165;-51
2023/08/03 10:22:31;;;;;;;5.60;2.47;;;20.30;80.30;21.10;99124.00;;;;6245308;22;20520;-52
2023/08/03 10:25:18;;;;;;;6.40;3.00;;;20.30;80.80;21.10;99135.00;;;;6271272;22;20172;-52
2023/08/03 10:28:13;;;;;;;6.43;3.03;;;20.30;80.90;21.20;99133.00;;;;6270058;22;20133;-52
2023/08/03 10:31:11;;;;;;;9.57;4.27;;;20.30;81.20;21.20;99129.00;;;;6270927;22;20222;-51
2023/08/03 10:33:49;;;;;;;10.57;5.67;;;20.30;81.70;21.20;99136.00;;;;6270829;22;20159;-51
2023/08/03 10:36:29;;;;;;;17.23;7.50;;;20.30;82.50;21.20;99149.00;;;;6271849;22;20164;-53
2023/08/03 10:39:06;;;;;;;17.30;6.60;;;20.40;83.50;21.20;99150.00;;;;6272507;22;20151;-51
2023/08/03 10:41:44;;;;;;;12.27;6.80;;;20.40;83.60;21.20;99156.00;;;;6272637;22;20165;-51
2023/08/03 10:44:13;;;;;;;16.60;6.93;;;20.50;84.00;21.20;99173.00;;;;6272141;22;20199;-50
2023/08/03 10:46:43;;;;;;;16.23;6.83;;;20.50;84.20;21.20;99163.00;;;;6269568;22;20206;-51
2023/08/03 10:49:21;;;;;;;10.63;6.07;;;20.50;84.40;21.20;99177.00;;;;6272302;22;20156;-51
2023/08/03 10:51:48;;;;;;;18.70;6.40;;;20.50;84.50;21.20;99178.00;;;;6271910;22;20153;-50
2023/08/03 10:54:19;;;;;;;12.83;5.70;;;20.50;84.30;21.20;99189.00;;;;6270446;22;20216;-52
2023/08/03 10:57:08;;;;;;;11.50;5.37;;;20.50;84.50;21.30;99183.00;;;;6218258;22;20147;-51